sensor_id;sensor_type;location;lat;lon;timestamp;temperature;humidity
7606;DHT22;3844;53.360;9.738;2022-07-23T00:00:33;15.50;90.60
7606;DHT22;3844;53.360;9.738;2022-07-23T00:02:58;15.50;90.40
7606;DHT22;3844;53.360;9.738;2022-07-23T00:07:50;15.50;90.30
7606;DHT22;3844;53.360;9.738;2022-07-23T00:10:16;15.40;90.30
7606;DHT22;3844;53.360;9.738;2022-07-23T00:12:42;15.30;90.40
7606;DHT22;3844;53.360;9.738;2022-07-23T00:15:08;15.20;90.60
7606;DHT22;3844;53.360;9.738;2022-07-23T00:17:34;15.20;90.90
7606;DHT22;3844;53.360;9.738;2022-07-23T00:20:01;15.20;91.00
7606;DHT22;3844;53.360;9.738;2022-07-23T00:22:26;15.20;91.20
7606;DHT22;3844;53.360;9.738;2022-07-23T00:24:55;15.10;91.30
7606;DHT22;3844;53.360;9.738;2022-07-23T00:27:21;15.10;91.50
7606;DHT22;3844;53.360;9.738;2022-07-23T00:29:46;15.10;91.60
7606;DHT22;3844;53.360;9.738;2022-07-23T00:32:12;15.20;91.60
7606;DHT22;3844;53.360;9.738;2022-07-23T00:34:38;15.20;91.60
7606;DHT22;3844;53.360;9.738;2022-07-23T00:37:04;15.20;91.60
7606;DHT22;3844;53.360;9.738;2022-07-23T00:39:29;15.20;91.60
7606;DHT22;3844;53.360;9.738;2022-07-23T00:41:55;15.10;91.40
7606;DHT22;3844;53.360;9.738;2022-07-23T00:44:23;15.00;91.50
7606;DHT22;3844;53.360;9.738;2022-07-23T00:46:52;15.00;91.60
7606;DHT22;3844;53.360;9.738;2022-07-23T00:49:29;14.90;91.60
7606;DHT22;3844;53.360;9.738;2022-07-23T00:51:56;14.80;91.80
7606;DHT22;3844;53.360;9.738;2022-07-23T00:54:24;14.80;92.00
7606;DHT22;3844;53.360;9.738;2022-07-23T00:56:50;14.70;92.30
7606;DHT22;3844;53.360;9.738;2022-07-23T00:59:16;14.70;92.50
7606;DHT22;3844;53.360;9.738;2022-07-23T01:01:42;14.70;92.60
7606;DHT22;3844;53.360;9.738;2022-07-23T01:04:10;14.70;92.80
7606;DHT22;3844;53.360;9.738;2022-07-23T01:06:38;14.70;92.80
7606;DHT22;3844;53.360;9.738;2022-07-23T01:09:05;14.70;92.60
7606;DHT22;3844;53.360;9.738;2022-07-23T01:11:35;14.70;92.60
7606;DHT22;3844;53.360;9.738;2022-07-23T01:14:13;14.70;92.50
7606;DHT22;3844;53.360;9.738;2022-07-23T01:16:40;14.60;92.60
7606;DHT22;3844;53.360;9.738;2022-07-23T01:19:06;14.60;92.80
7606;DHT22;3844;53.360;9.738;2022-07-23T01:21:48;14.60;92.90
7606;DHT22;3844;53.360;9.738;2022-07-23T01:24:14;14.50;93.10
7606;DHT22;3844;53.360;9.738;2022-07-23T01:26:42;14.50;93.40
7606;DHT22;3844;53.360;9.738;2022-07-23T01:29:08;14.50;93.30
7606;DHT22;3844;53.360;9.738;2022-07-23T01:31:34;14.50;93.50
7606;DHT22;3844;53.360;9.738;2022-07-23T01:34:00;14.50;93.60
7606;DHT22;3844;53.360;9.738;2022-07-23T01:36:26;14.50;93.80
7606;DHT22;3844;53.360;9.738;2022-07-23T01:38:52;14.50;93.90
7606;DHT22;3844;53.360;9.738;2022-07-23T01:41:18;14.50;93.80
7606;DHT22;3844;53.360;9.738;2022-07-23T01:43:44;14.40;93.80
7606;DHT22;3844;53.360;9.738;2022-07-23T01:46:09;14.40;94.00
7606;DHT22;3844;53.360;9.738;2022-07-23T01:48:35;14.40;94.20
7606;DHT22;3844;53.360;9.738;2022-07-23T01:51:01;14.40;94.30
7606;DHT22;3844;53.360;9.738;2022-07-23T01:53:27;14.40;94.20
7606;DHT22;3844;53.360;9.738;2022-07-23T01:55:52;14.40;94.30
7606;DHT22;3844;53.360;9.738;2022-07-23T01:58:18;14.40;94.30
7606;DHT22;3844;53.360;9.738;2022-07-23T02:00:44;14.40;94.20
7606;DHT22;3844;53.360;9.738;2022-07-23T02:03:09;14.40;94.30
7606;DHT22;3844;53.360;9.738;2022-07-23T02:05:35;14.40;94.30
7606;DHT22;3844;53.360;9.738;2022-07-23T02:08:01;14.30;94.30
7606;DHT22;3844;53.360;9.738;2022-07-23T02:10:27;14.30;94.20
7606;DHT22;3844;53.360;9.738;2022-07-23T02:12:53;14.30;94.00
7606;DHT22;3844;53.360;9.738;2022-07-23T02:15:19;14.20;94.10
7606;DHT22;3844;53.360;9.738;2022-07-23T02:17:45;14.10;94.30
7606;DHT22;3844;53.360;9.738;2022-07-23T02:20:11;14.00;94.60
7606;DHT22;3844;53.360;9.738;2022-07-23T02:22:38;13.90;94.70
7606;DHT22;3844;53.360;9.738;2022-07-23T02:25:05;13.80;94.90
7606;DHT22;3844;53.360;9.738;2022-07-23T02:27:31;13.80;95.00
7606;DHT22;3844;53.360;9.738;2022-07-23T02:29:56;13.80;94.70
7606;DHT22;3844;53.360;9.738;2022-07-23T02:32:23;13.70;94.90
7606;DHT22;3844;53.360;9.738;2022-07-23T02:34:50;13.60;95.00
7606;DHT22;3844;53.360;9.738;2022-07-23T02:37:15;13.50;95.30
7606;DHT22;3844;53.360;9.738;2022-07-23T02:39:41;13.50;95.30
7606;DHT22;3844;53.360;9.738;2022-07-23T02:42:07;13.40;95.20
7606;DHT22;3844;53.360;9.738;2022-07-23T02:44:33;13.30;95.40
7606;DHT22;3844;53.360;9.738;2022-07-23T02:46:59;13.30;95.40
7606;DHT22;3844;53.360;9.738;2022-07-23T02:49:25;13.30;95.20
7606;DHT22;3844;53.360;9.738;2022-07-23T02:51:51;13.30;95.20
7606;DHT22;3844;53.360;9.738;2022-07-23T02:54:17;13.20;95.50
7606;DHT22;3844;53.360;9.738;2022-07-23T02:56:42;13.20;95.70
7606;DHT22;3844;53.360;9.738;2022-07-23T02:59:08;13.10;95.60
7606;DHT22;3844;53.360;9.738;2022-07-23T03:01:34;13.10;95.70
7606;DHT22;3844;53.360;9.738;2022-07-23T03:04:00;13.00;95.70
7606;DHT22;3844;53.360;9.738;2022-07-23T03:06:25;13.00;95.70
7606;DHT22;3844;53.360;9.738;2022-07-23T03:08:51;12.90;95.70
7606;DHT22;3844;53.360;9.738;2022-07-23T03:11:17;12.90;95.70
7606;DHT22;3844;53.360;9.738;2022-07-23T03:13:43;12.80;95.70
7606;DHT22;3844;53.360;9.738;2022-07-23T03:16:08;12.90;95.70
7606;DHT22;3844;53.360;9.738;2022-07-23T03:18:34;12.80;95.70
7606;DHT22;3844;53.360;9.738;2022-07-23T03:21:00;12.90;95.70
7606;DHT22;3844;53.360;9.738;2022-07-23T03:23:25;12.90;95.70
7606;DHT22;3844;53.360;9.738;2022-07-23T03:25:51;12.80;95.70
7606;DHT22;3844;53.360;9.738;2022-07-23T03:28:18;12.80;95.70
7606;DHT22;3844;53.360;9.738;2022-07-23T03:30:45;12.80;95.70
7606;DHT22;3844;53.360;9.738;2022-07-23T03:33:15;12.80;95.70
7606;DHT22;3844;53.360;9.738;2022-07-23T03:35:43;12.80;95.70
7606;DHT22;3844;53.360;9.738;2022-07-23T03:38:08;12.80;95.70
7606;DHT22;3844;53.360;9.738;2022-07-23T03:40:34;12.80;95.70
7606;DHT22;3844;53.360;9.738;2022-07-23T03:43:00;12.90;95.70
7606;DHT22;3844;53.360;9.738;2022-07-23T03:45:26;13.00;95.70
7606;DHT22;3844;53.360;9.738;2022-07-23T03:47:51;13.10;95.70
7606;DHT22;3844;53.360;9.738;2022-07-23T03:50:17;13.20;95.70
7606;DHT22;3844;53.360;9.738;2022-07-23T03:52:43;13.20;95.70
7606;DHT22;3844;53.360;9.738;2022-07-23T03:55:09;13.20;95.70
7606;DHT22;3844;53.360;9.738;2022-07-23T03:57:35;13.30;95.70
7606;DHT22;3844;53.360;9.738;2022-07-23T04:00:01;13.40;95.70
7606;DHT22;3844;53.360;9.738;2022-07-23T04:02:26;13.50;95.70
7606;DHT22;3844;53.360;9.738;2022-07-23T04:04:52;13.50;95.70
7606;DHT22;3844;53.360;9.738;2022-07-23T04:07:18;13.60;95.70
7606;DHT22;3844;53.360;9.738;2022-07-23T04:09:44;13.60;95.70
7606;DHT22;3844;53.360;9.738;2022-07-23T04:12:10;13.60;95.70
7606;DHT22;3844;53.360;9.738;2022-07-23T04:14:36;13.60;95.70
7606;DHT22;3844;53.360;9.738;2022-07-23T04:17:02;13.70;95.70
7606;DHT22;3844;53.360;9.738;2022-07-23T04:19:28;13.70;95.70
7606;DHT22;3844;53.360;9.738;2022-07-23T04:21:53;13.80;95.70
7606;DHT22;3844;53.360;9.738;2022-07-23T04:24:19;13.80;95.70
7606;DHT22;3844;53.360;9.738;2022-07-23T04:26:45;13.70;95.60
7606;DHT22;3844;53.360;9.738;2022-07-23T04:29:11;13.70;95.70
7606;DHT22;3844;53.360;9.738;2022-07-23T04:31:37;13.60;95.70
7606;DHT22;3844;53.360;9.738;2022-07-23T04:34:03;13.60;95.70
7606;DHT22;3844;53.360;9.738;2022-07-23T04:36:28;13.60;95.70
7606;DHT22;3844;53.360;9.738;2022-07-23T04:38:54;13.60;95.70
7606;DHT22;3844;53.360;9.738;2022-07-23T04:41:20;13.60;95.70
7606;DHT22;3844;53.360;9.738;2022-07-23T04:43:46;13.60;95.70
7606;DHT22;3844;53.360;9.738;2022-07-23T04:46:12;13.60;95.70
7606;DHT22;3844;53.360;9.738;2022-07-23T04:48:39;13.70;95.70
7606;DHT22;3844;53.360;9.738;2022-07-23T04:51:05;13.70;95.70
7606;DHT22;3844;53.360;9.738;2022-07-23T04:53:31;13.80;95.70
7606;DHT22;3844;53.360;9.738;2022-07-23T04:55:57;13.90;95.70
7606;DHT22;3844;53.360;9.738;2022-07-23T04:58:22;14.00;95.70
7606;DHT22;3844;53.360;9.738;2022-07-23T05:00:48;14.10;95.70
7606;DHT22;3844;53.360;9.738;2022-07-23T05:03:14;14.10;95.70
7606;DHT22;3844;53.360;9.738;2022-07-23T05:05:40;14.20;95.70
7606;DHT22;3844;53.360;9.738;2022-07-23T05:08:06;14.20;95.60
7606;DHT22;3844;53.360;9.738;2022-07-23T05:10:31;14.20;95.60
7606;DHT22;3844;53.360;9.738;2022-07-23T05:12:57;14.20;95.60
7606;DHT22;3844;53.360;9.738;2022-07-23T05:15:23;14.20;95.70
7606;DHT22;3844;53.360;9.738;2022-07-23T05:17:49;14.20;95.70
7606;DHT22;3844;53.360;9.738;2022-07-23T05:22:41;14.30;95.70
7606;DHT22;3844;53.360;9.738;2022-07-23T05:25:07;14.30;95.70
7606;DHT22;3844;53.360;9.738;2022-07-23T05:27:32;14.40;95.70
7606;DHT22;3844;53.360;9.738;2022-07-23T05:29:58;14.50;95.70
7606;DHT22;3844;53.360;9.738;2022-07-23T05:32:24;14.60;95.70
7606;DHT22;3844;53.360;9.738;2022-07-23T05:34:50;14.60;95.50
7606;DHT22;3844;53.360;9.738;2022-07-23T05:37:16;14.60;95.40
7606;DHT22;3844;53.360;9.738;2022-07-23T05:39:41;14.60;95.50
7606;DHT22;3844;53.360;9.738;2022-07-23T05:42:07;14.60;95.70
7606;DHT22;3844;53.360;9.738;2022-07-23T05:44:33;14.70;95.70
7606;DHT22;3844;53.360;9.738;2022-07-23T05:46:59;14.90;95.70
7606;DHT22;3844;53.360;9.738;2022-07-23T05:49:24;15.00;95.50
7606;DHT22;3844;53.360;9.738;2022-07-23T05:51:50;15.10;94.40
7606;DHT22;3844;53.360;9.738;2022-07-23T05:54:16;15.20;94.40
7606;DHT22;3844;53.360;9.738;2022-07-23T05:56:42;15.30;94.30
7606;DHT22;3844;53.360;9.738;2022-07-23T05:59:07;15.40;94.30
7606;DHT22;3844;53.360;9.738;2022-07-23T06:01:34;15.60;94.00
7606;DHT22;3844;53.360;9.738;2022-07-23T06:04:00;15.70;93.60
7606;DHT22;3844;53.360;9.738;2022-07-23T06:06:26;15.80;93.20
7606;DHT22;3844;53.360;9.738;2022-07-23T06:08:51;15.90;93.10
7606;DHT22;3844;53.360;9.738;2022-07-23T06:11:17;16.10;92.20
7606;DHT22;3844;53.360;9.738;2022-07-23T06:13:43;16.20;92.10
7606;DHT22;3844;53.360;9.738;2022-07-23T06:16:09;16.20;90.60
7606;DHT22;3844;53.360;9.738;2022-07-23T06:18:34;16.30;91.00
7606;DHT22;3844;53.360;9.738;2022-07-23T06:21:00;16.40;91.10
7606;DHT22;3844;53.360;9.738;2022-07-23T06:23:26;16.50;91.10
7606;DHT22;3844;53.360;9.738;2022-07-23T06:25:51;16.70;90.50
7606;DHT22;3844;53.360;9.738;2022-07-23T06:28:17;16.80;89.60
7606;DHT22;3844;53.360;9.738;2022-07-23T06:30:43;16.90;89.00
7606;DHT22;3844;53.360;9.738;2022-07-23T06:33:09;17.10;88.60
7606;DHT22;3844;53.360;9.738;2022-07-23T06:35:35;17.10;87.90
7606;DHT22;3844;53.360;9.738;2022-07-23T06:38:00;17.20;88.20
7606;DHT22;3844;53.360;9.738;2022-07-23T06:40:26;17.30;88.10
7606;DHT22;3844;53.360;9.738;2022-07-23T06:42:52;17.50;86.30
7606;DHT22;3844;53.360;9.738;2022-07-23T06:45:18;17.50;86.00
7606;DHT22;3844;53.360;9.738;2022-07-23T06:47:43;17.50;85.70
7606;DHT22;3844;53.360;9.738;2022-07-23T06:50:09;17.70;85.80
7606;DHT22;3844;53.360;9.738;2022-07-23T06:52:35;17.80;84.30
7606;DHT22;3844;53.360;9.738;2022-07-23T06:55:01;17.90;84.00
7606;DHT22;3844;53.360;9.738;2022-07-23T06:57:27;18.10;84.40
7606;DHT22;3844;53.360;9.738;2022-07-23T06:59:53;18.30;83.60
7606;DHT22;3844;53.360;9.738;2022-07-23T07:02:18;18.50;82.00
7606;DHT22;3844;53.360;9.738;2022-07-23T07:04:44;18.60;81.70
7606;DHT22;3844;53.360;9.738;2022-07-23T07:07:10;18.80;80.40
7606;DHT22;3844;53.360;9.738;2022-07-23T07:09:37;19.10;79.70
7606;DHT22;3844;53.360;9.738;2022-07-23T07:12:03;19.40;79.00
7606;DHT22;3844;53.360;9.738;2022-07-23T07:14:29;19.70;77.40
7606;DHT22;3844;53.360;9.738;2022-07-23T07:16:55;19.70;76.70
7606;DHT22;3844;53.360;9.738;2022-07-23T07:19:21;19.60;76.20
7606;DHT22;3844;53.360;9.738;2022-07-23T07:21:47;19.30;77.50
7606;DHT22;3844;53.360;9.738;2022-07-23T07:24:12;19.20;78.10
7606;DHT22;3844;53.360;9.738;2022-07-23T07:26:38;19.30;78.20
7606;DHT22;3844;53.360;9.738;2022-07-23T07:29:05;19.50;77.40
7606;DHT22;3844;53.360;9.738;2022-07-23T07:31:31;19.90;76.30
7606;DHT22;3844;53.360;9.738;2022-07-23T07:33:57;20.20;76.40
7606;DHT22;3844;53.360;9.738;2022-07-23T07:36:23;20.20;74.70
7606;DHT22;3844;53.360;9.738;2022-07-23T07:38:48;19.90;74.10
7606;DHT22;3844;53.360;9.738;2022-07-23T07:41:14;19.90;75.20
7606;DHT22;3844;53.360;9.738;2022-07-23T07:43:41;20.20;76.40
7606;DHT22;3844;53.360;9.738;2022-07-23T07:48:36;21.20;71.20
7606;DHT22;3844;53.360;9.738;2022-07-23T07:51:03;20.90;72.50
7606;DHT22;3844;53.360;9.738;2022-07-23T07:53:29;20.50;72.10
7606;DHT22;3844;53.360;9.738;2022-07-23T07:55:55;20.20;73.90
7606;DHT22;3844;53.360;9.738;2022-07-23T07:58:21;20.00;74.00
7606;DHT22;3844;53.360;9.738;2022-07-23T08:00:47;20.10;75.90
7606;DHT22;3844;53.360;9.738;2022-07-23T08:03:12;21.00;74.80
7606;DHT22;3844;53.360;9.738;2022-07-23T08:05:38;22.10;71.90
7606;DHT22;3844;53.360;9.738;2022-07-23T08:08:04;23.00;67.60
7606;DHT22;3844;53.360;9.738;2022-07-23T08:10:30;22.60;66.70
7606;DHT22;3844;53.360;9.738;2022-07-23T08:12:58;22.00;66.90
7606;DHT22;3844;53.360;9.738;2022-07-23T08:15:26;21.40;68.00
7606;DHT22;3844;53.360;9.738;2022-07-23T08:17:52;21.00;70.50
7606;DHT22;3844;53.360;9.738;2022-07-23T08:20:20;21.20;71.60
7606;DHT22;3844;53.360;9.738;2022-07-23T08:23:01;21.50;68.50
7606;DHT22;3844;53.360;9.738;2022-07-23T08:25:39;21.80;70.60
7606;DHT22;3844;53.360;9.738;2022-07-23T08:28:08;22.20;67.40
7606;DHT22;3844;53.360;9.738;2022-07-23T08:30:35;22.40;67.00
7606;DHT22;3844;53.360;9.738;2022-07-23T08:33:05;22.10;65.30
7606;DHT22;3844;53.360;9.738;2022-07-23T08:35:45;21.90;67.80
7606;DHT22;3844;53.360;9.738;2022-07-23T08:38:13;22.30;66.60
7606;DHT22;3844;53.360;9.738;2022-07-23T08:40:45;22.30;66.10
7606;DHT22;3844;53.360;9.738;2022-07-23T08:43:13;22.00;65.80
7606;DHT22;3844;53.360;9.738;2022-07-23T08:45:42;21.50;67.50
7606;DHT22;3844;53.360;9.738;2022-07-23T08:48:12;21.20;69.70
7606;DHT22;3844;53.360;9.738;2022-07-23T08:50:42;21.20;70.20
7606;DHT22;3844;53.360;9.738;2022-07-23T08:53:08;21.30;70.10
7606;DHT22;3844;53.360;9.738;2022-07-23T08:55:35;21.70;69.00
7606;DHT22;3844;53.360;9.738;2022-07-23T08:58:01;22.00;66.90
7606;DHT22;3844;53.360;9.738;2022-07-23T09:00:27;22.20;66.30
7606;DHT22;3844;53.360;9.738;2022-07-23T09:02:53;22.10;64.50
7606;DHT22;3844;53.360;9.738;2022-07-23T09:05:20;21.80;66.10
7606;DHT22;3844;53.360;9.738;2022-07-23T09:11:00;21.80;66.10
7606;DHT22;3844;53.360;9.738;2022-07-23T09:16:16;22.00;67.20
7606;DHT22;3844;53.360;9.738;2022-07-23T09:21:14;21.90;66.40
7606;DHT22;3844;53.360;9.738;2022-07-23T09:31:46;22.00;64.90
7606;DHT22;3844;53.360;9.738;2022-07-23T09:34:15;22.70;63.20
7606;DHT22;3844;53.360;9.738;2022-07-23T09:36:41;23.50;62.10
7606;DHT22;3844;53.360;9.738;2022-07-23T09:39:07;24.20;61.60
7606;DHT22;3844;53.360;9.738;2022-07-23T09:41:35;24.60;60.30
7606;DHT22;3844;53.360;9.738;2022-07-23T09:44:16;24.30;60.30
7606;DHT22;3844;53.360;9.738;2022-07-23T09:46:44;23.60;59.70
7606;DHT22;3844;53.360;9.738;2022-07-23T09:49:12;22.40;62.50
7606;DHT22;3844;53.360;9.738;2022-07-23T09:54:33;21.10;66.20
7606;DHT22;3844;53.360;9.738;2022-07-23T09:57:08;20.40;68.30
7606;DHT22;3844;53.360;9.738;2022-07-23T09:59:38;20.20;69.70
7606;DHT22;3844;53.360;9.738;2022-07-23T10:02:06;19.90;69.60
7606;DHT22;3844;53.360;9.738;2022-07-23T10:04:33;19.50;70.50
7606;DHT22;3844;53.360;9.738;2022-07-23T10:07:02;19.10;71.40
7606;DHT22;3844;53.360;9.738;2022-07-23T10:09:31;18.80;72.30
7606;DHT22;3844;53.360;9.738;2022-07-23T10:12:05;18.60;73.00
7606;DHT22;3844;53.360;9.738;2022-07-23T10:14:34;18.60;73.70
7606;DHT22;3844;53.360;9.738;2022-07-23T10:17:03;18.80;74.40
7606;DHT22;3844;53.360;9.738;2022-07-23T10:19:31;19.00;72.60
7606;DHT22;3844;53.360;9.738;2022-07-23T10:22:06;19.50;73.20
7606;DHT22;3844;53.360;9.738;2022-07-23T10:25:02;20.30;71.60
7606;DHT22;3844;53.360;9.738;2022-07-23T10:30:21;21.20;68.20
7606;DHT22;3844;53.360;9.738;2022-07-23T10:33:26;21.50;67.00
7606;DHT22;3844;53.360;9.738;2022-07-23T10:36:19;21.90;63.70
7606;DHT22;3844;53.360;9.738;2022-07-23T10:39:38;22.10;65.20
7606;DHT22;3844;53.360;9.738;2022-07-23T10:41:40;22.40;65.10
7606;DHT22;3844;53.360;9.738;2022-07-23T10:44:48;22.70;63.70
7606;DHT22;3844;53.360;9.738;2022-07-23T10:47:27;22.60;62.80
7606;DHT22;3844;53.360;9.738;2022-07-23T10:49:53;22.40;61.80
7606;DHT22;3844;53.360;9.738;2022-07-23T10:52:39;22.30;64.30
7606;DHT22;3844;53.360;9.738;2022-07-23T10:57:50;22.20;62.30
7606;DHT22;3844;53.360;9.738;2022-07-23T11:00:27;22.30;62.50
7606;DHT22;3844;53.360;9.738;2022-07-23T11:02:56;22.60;62.00
7606;DHT22;3844;53.360;9.738;2022-07-23T11:05:39;22.70;62.50
7606;DHT22;3844;53.360;9.738;2022-07-23T11:29:40;22.30;63.40
7606;DHT22;3844;53.360;9.738;2022-07-23T11:32:08;22.30;64.90
7606;DHT22;3844;53.360;9.738;2022-07-23T11:37:05;22.30;64.30
7606;DHT22;3844;53.360;9.738;2022-07-23T11:39:32;22.50;64.40
7606;DHT22;3844;53.360;9.738;2022-07-23T11:41:59;22.70;64.50
7606;DHT22;3844;53.360;9.738;2022-07-23T11:44:38;22.70;62.80
7606;DHT22;3844;53.360;9.738;2022-07-23T11:47:09;22.90;62.40
7606;DHT22;3844;53.360;9.738;2022-07-23T11:49:36;23.10;61.70
7606;DHT22;3844;53.360;9.738;2022-07-23T11:52:22;23.20;62.10
7606;DHT22;3844;53.360;9.738;2022-07-23T11:57:20;23.40;61.50
7606;DHT22;3844;53.360;9.738;2022-07-23T11:59:47;23.70;61.60
7606;DHT22;3844;53.360;9.738;2022-07-23T12:02:15;23.90;61.60
7606;DHT22;3844;53.360;9.738;2022-07-23T12:04:45;24.00;60.80
7606;DHT22;3844;53.360;9.738;2022-07-23T12:07:35;23.90;60.40
7606;DHT22;3844;53.360;9.738;2022-07-23T12:15:16;24.70;60.20
7606;DHT22;3844;53.360;9.738;2022-07-23T12:17:44;24.90;58.70
7606;DHT22;3844;53.360;9.738;2022-07-23T12:20:14;24.90;57.30
7606;DHT22;3844;53.360;9.738;2022-07-23T12:22:45;25.20;58.30
7606;DHT22;3844;53.360;9.738;2022-07-23T12:25:17;25.40;56.70
7606;DHT22;3844;53.360;9.738;2022-07-23T12:27:43;25.40;56.80
7606;DHT22;3844;53.360;9.738;2022-07-23T12:30:43;25.00;56.50
7606;DHT22;3844;53.360;9.738;2022-07-23T12:33:23;24.40;58.80
7606;DHT22;3844;53.360;9.738;2022-07-23T12:35:50;24.20;60.00
7606;DHT22;3844;53.360;9.738;2022-07-23T12:38:19;24.20;60.20
7606;DHT22;3844;53.360;9.738;2022-07-23T12:40:46;24.00;59.20
7606;DHT22;3844;53.360;9.738;2022-07-23T12:43:26;23.90;60.40
7606;DHT22;3844;53.360;9.738;2022-07-23T12:45:53;24.30;60.40
7606;DHT22;3844;53.360;9.738;2022-07-23T12:48:21;24.70;58.80
7606;DHT22;3844;53.360;9.738;2022-07-23T12:50:52;24.50;58.50
7606;DHT22;3844;53.360;9.738;2022-07-23T12:53:23;24.40;58.20
7606;DHT22;3844;53.360;9.738;2022-07-23T12:55:50;24.10;59.60
7606;DHT22;3844;53.360;9.738;2022-07-23T12:58:18;24.10;59.20
7606;DHT22;3844;53.360;9.738;2022-07-23T13:00:52;24.00;59.50
7606;DHT22;3844;53.360;9.738;2022-07-23T13:06:01;24.10;61.80
7606;DHT22;3844;53.360;9.738;2022-07-23T13:08:28;24.30;58.70
7606;DHT22;3844;53.360;9.738;2022-07-23T13:10:55;24.70;58.90
7606;DHT22;3844;53.360;9.738;2022-07-23T13:13:22;25.40;57.40
7606;DHT22;3844;53.360;9.738;2022-07-23T13:15:49;26.20;55.40
7606;DHT22;3844;53.360;9.738;2022-07-23T13:18:15;26.20;54.80
7606;DHT22;3844;53.360;9.738;2022-07-23T13:20:43;25.80;55.30
7606;DHT22;3844;53.360;9.738;2022-07-23T13:23:08;25.40;56.50
7606;DHT22;3844;53.360;9.738;2022-07-23T13:25:34;25.30;56.40
7606;DHT22;3844;53.360;9.738;2022-07-23T13:28:00;25.10;56.70
7606;DHT22;3844;53.360;9.738;2022-07-23T13:30:26;24.70;57.30
7606;DHT22;3844;53.360;9.738;2022-07-23T13:32:52;24.50;58.30
7606;DHT22;3844;53.360;9.738;2022-07-23T13:35:17;24.10;59.00
7606;DHT22;3844;53.360;9.738;2022-07-23T13:37:43;24.30;59.00
7606;DHT22;3844;53.360;9.738;2022-07-23T13:40:10;24.50;58.20
7606;DHT22;3844;53.360;9.738;2022-07-23T13:42:36;24.60;58.60
7606;DHT22;3844;53.360;9.738;2022-07-23T13:45:03;24.70;57.20
7606;DHT22;3844;53.360;9.738;2022-07-23T13:49:56;24.90;57.10
7606;DHT22;3844;53.360;9.738;2022-07-23T13:52:21;25.40;57.50
7606;DHT22;3844;53.360;9.738;2022-07-23T13:54:47;25.60;57.00
7606;DHT22;3844;53.360;9.738;2022-07-23T13:57:13;25.40;56.60
7606;DHT22;3844;53.360;9.738;2022-07-23T13:59:39;25.10;55.30
7606;DHT22;3844;53.360;9.738;2022-07-23T14:02:05;24.60;56.00
7606;DHT22;3844;53.360;9.738;2022-07-23T14:04:31;24.00;56.90
7606;DHT22;3844;53.360;9.738;2022-07-23T14:06:57;23.60;59.30
7606;DHT22;3844;53.360;9.738;2022-07-23T14:09:23;23.90;60.10
7606;DHT22;3844;53.360;9.738;2022-07-23T14:11:49;24.10;57.50
7606;DHT22;3844;53.360;9.738;2022-07-23T14:14:17;24.00;57.90
7606;DHT22;3844;53.360;9.738;2022-07-23T14:16:43;23.50;59.80
7606;DHT22;3844;53.360;9.738;2022-07-23T14:19:10;23.20;61.20
7606;DHT22;3844;53.360;9.738;2022-07-23T14:21:36;23.20;60.40
7606;DHT22;3844;53.360;9.738;2022-07-23T14:24:02;23.00;60.90
7606;DHT22;3844;53.360;9.738;2022-07-23T14:26:28;23.40;60.50
7606;DHT22;3844;53.360;9.738;2022-07-23T14:28:54;24.10;58.20
7606;DHT22;3844;53.360;9.738;2022-07-23T14:31:21;24.70;58.20
7606;DHT22;3844;53.360;9.738;2022-07-23T14:33:47;24.50;57.10
7606;DHT22;3844;53.360;9.738;2022-07-23T14:36:13;24.20;56.40
7606;DHT22;3844;53.360;9.738;2022-07-23T14:38:39;23.60;58.70
7606;DHT22;3844;53.360;9.738;2022-07-23T14:41:05;23.50;57.90
7606;DHT22;3844;53.360;9.738;2022-07-23T14:43:32;23.40;57.30
7606;DHT22;3844;53.360;9.738;2022-07-23T14:45:58;23.40;59.20
7606;DHT22;3844;53.360;9.738;2022-07-23T14:48:24;23.50;58.30
7606;DHT22;3844;53.360;9.738;2022-07-23T14:50:50;23.60;56.40
7606;DHT22;3844;53.360;9.738;2022-07-23T14:53:16;23.50;57.70
7606;DHT22;3844;53.360;9.738;2022-07-23T14:55:42;23.40;58.20
7606;DHT22;3844;53.360;9.738;2022-07-23T14:58:08;23.20;56.90
7606;DHT22;3844;53.360;9.738;2022-07-23T15:00:34;23.00;57.50
7606;DHT22;3844;53.360;9.738;2022-07-23T15:02:59;22.80;59.00
7606;DHT22;3844;53.360;9.738;2022-07-23T15:05:25;22.70;59.10
7606;DHT22;3844;53.360;9.738;2022-07-23T15:07:51;22.60;59.90
7606;DHT22;3844;53.360;9.738;2022-07-23T15:10:17;22.70;60.50
7606;DHT22;3844;53.360;9.738;2022-07-23T15:15:09;23.10;58.80
7606;DHT22;3844;53.360;9.738;2022-07-23T15:17:34;23.00;59.20
7606;DHT22;3844;53.360;9.738;2022-07-23T15:20:00;23.10;59.90
7606;DHT22;3844;53.360;9.738;2022-07-23T15:22:26;23.20;58.10
7606;DHT22;3844;53.360;9.738;2022-07-23T15:24:52;23.10;58.70
7606;DHT22;3844;53.360;9.738;2022-07-23T15:27:18;23.10;58.90
7606;DHT22;3844;53.360;9.738;2022-07-23T15:29:44;22.80;59.00
7606;DHT22;3844;53.360;9.738;2022-07-23T15:32:10;22.80;59.90
7606;DHT22;3844;53.360;9.738;2022-07-23T15:34:38;22.90;60.20
7606;DHT22;3844;53.360;9.738;2022-07-23T15:37:04;23.00;59.10
7606;DHT22;3844;53.360;9.738;2022-07-23T15:39:33;22.90;60.30
7606;DHT22;3844;53.360;9.738;2022-07-23T15:42:02;23.00;59.20
7606;DHT22;3844;53.360;9.738;2022-07-23T15:44:28;22.80;59.20
7606;DHT22;3844;53.360;9.738;2022-07-23T15:46:55;22.70;60.50
7606;DHT22;3844;53.360;9.738;2022-07-23T15:51:47;22.70;60.50
7606;DHT22;3844;53.360;9.738;2022-07-23T15:54:13;22.60;59.30
7606;DHT22;3844;53.360;9.738;2022-07-23T15:56:39;22.20;60.40
7606;DHT22;3844;53.360;9.738;2022-07-23T15:59:04;22.00;61.00
7606;DHT22;3844;53.360;9.738;2022-07-23T16:01:30;22.20;61.20
7606;DHT22;3844;53.360;9.738;2022-07-23T16:03:57;22.30;61.20
7606;DHT22;3844;53.360;9.738;2022-07-23T16:06:26;22.60;59.70
7606;DHT22;3844;53.360;9.738;2022-07-23T16:08:52;22.80;60.60
7606;DHT22;3844;53.360;9.738;2022-07-23T16:11:18;23.00;60.00
7606;DHT22;3844;53.360;9.738;2022-07-23T16:13:44;23.00;59.30
7606;DHT22;3844;53.360;9.738;2022-07-23T16:16:11;22.80;60.50
7606;DHT22;3844;53.360;9.738;2022-07-23T16:18:37;22.80;60.60
7606;DHT22;3844;53.360;9.738;2022-07-23T16:21:04;22.70;60.50
7606;DHT22;3844;53.360;9.738;2022-07-23T16:23:30;22.60;61.20
7606;DHT22;3844;53.360;9.738;2022-07-23T16:25:56;22.60;61.30
7606;DHT22;3844;53.360;9.738;2022-07-23T16:28:21;22.70;60.70
7606;DHT22;3844;53.360;9.738;2022-07-23T16:30:47;22.70;60.50
7606;DHT22;3844;53.360;9.738;2022-07-23T16:33:13;22.60;59.70
7606;DHT22;3844;53.360;9.738;2022-07-23T16:35:38;22.30;60.90
7606;DHT22;3844;53.360;9.738;2022-07-23T16:38:04;22.20;62.10
7606;DHT22;3844;53.360;9.738;2022-07-23T16:40:31;22.10;61.90
7606;DHT22;3844;53.360;9.738;2022-07-23T16:42:57;22.10;62.20
7606;DHT22;3844;53.360;9.738;2022-07-23T16:45:24;22.10;62.90
7606;DHT22;3844;53.360;9.738;2022-07-23T16:47:50;22.20;63.00
7606;DHT22;3844;53.360;9.738;2022-07-23T16:50:16;22.20;62.80
7606;DHT22;3844;53.360;9.738;2022-07-23T16:52:42;22.10;62.90
7606;DHT22;3844;53.360;9.738;2022-07-23T16:55:08;22.10;63.60
7606;DHT22;3844;53.360;9.738;2022-07-23T16:57:34;22.10;64.00
7606;DHT22;3844;53.360;9.738;2022-07-23T17:00:00;22.00;63.40
7606;DHT22;3844;53.360;9.738;2022-07-23T17:02:26;21.70;63.70
7606;DHT22;3844;53.360;9.738;2022-07-23T17:04:52;21.40;64.50
7606;DHT22;3844;53.360;9.738;2022-07-23T17:07:19;21.30;65.20
7606;DHT22;3844;53.360;9.738;2022-07-23T17:09:44;21.20;65.20
7606;DHT22;3844;53.360;9.738;2022-07-23T17:12:10;21.20;65.80
7606;DHT22;3844;53.360;9.738;2022-07-23T17:14:36;21.30;65.40
7606;DHT22;3844;53.360;9.738;2022-07-23T17:17:02;21.30;64.70